Time;durP1;ratioP1;P1;durP2;ratioP2;P2;SDS_P1;SDS_P2;PMS_P1;PMS_P2;Temp;Humidity;BMP_temperature;BMP_pressure;BME280_temperature;BME280_humidity;BME280_pressure;Samples;Min_cycle;Max_cycle;Signal;HPM_P1;HPM_P2
2022/01/20 00:00:33;;;;;;;11.23;2.70;;;5.20;95.00;;;;;;6113801;23;20017;-75
2022/01/20 00:03:01;;;;;;;14.15;3.13;;;5.20;95.00;;;;;;6187101;23;20311;-74
2022/01/20 00:08:35;;;;;;;12.13;2.90;;;5.20;95.10;;;;;;6139554;23;20021;-74
2022/01/20 00:27:38;;;;;;;12.13;2.35;;;5.10;95.00;;;;;;6099247;23;20025;-75
2022/01/20 00:37:31;;;;;;;11.43;2.25;;;5.10;95.00;;;;;;6186232;23;20021;-74
2022/01/20 00:39:57;;;;;;;8.95;2.72;;;5.10;95.00;;;;;;6160726;23;20013;-74
2022/01/20 00:42:23;;;;;;;8.80;2.08;;;5.10;95.00;;;;;;6160368;23;20020;-74
2022/01/20 00:44:49;;;;;;;10.30;1.83;;;5.10;95.00;;;;;;6135027;23;20036;-75
2022/01/20 00:47:15;;;;;;;9.13;1.85;;;5.00;95.00;;;;;;6160514;23;20025;-74
2022/01/20 00:49:41;;;;;;;10.27;1.70;;;5.00;95.00;;;;;;6186119;23;20013;-80
2022/01/20 00:52:07;;;;;;;9.40;1.60;;;5.10;95.10;;;;;;6160347;23;20017;-74
2022/01/20 00:54:33;;;;;;;10.07;1.95;;;5.10;95.10;;;;;;6135521;23;20024;-74
2022/01/20 00:56:59;;;;;;;11.55;2.08;;;5.00;95.00;;;;;;6186226;23;20100;-74
2022/01/20 00:59:26;;;;;;;7.15;1.55;;;5.00;95.00;;;;;;6160293;23;20035;-74
2022/01/20 01:01:52;;;;;;;10.75;2.08;;;5.00;95.00;;;;;;6159576;23;20017;-74
2022/01/20 01:04:17;;;;;;;8.98;2.03;;;5.00;95.00;;;;;;6135476;23;20383;-74
2022/01/20 01:09:18;;;;;;;11.02;3.03;;;5.00;95.10;;;;;;6161917;23;20028;-75
2022/01/20 01:11:46;;;;;;;12.88;2.38;;;5.00;95.10;;;;;;6135366;23;20095;-78
2022/01/20 01:14:12;;;;;;;11.80;2.22;;;5.00;95.10;;;;;;6135312;23;20017;-74
2022/01/20 01:24:42;;;;;;;9.48;1.77;;;5.00;95.20;;;;;;6159858;23;20021;-74
2022/01/20 01:27:08;;;;;;;11.55;2.42;;;5.00;95.20;;;;;;6185695;23;20471;-74
2022/01/20 01:32:22;;;;;;;10.25;2.03;;;5.00;95.20;;;;;;6185818;23;20032;-74
2022/01/20 01:34:51;;;;;;;9.98;1.70;;;5.00;95.20;;;;;;6159035;23;20083;-76
2022/01/20 01:40:18;;;;;;;6.82;1.40;;;5.00;95.20;;;;;;6185870;23;20043;-75
2022/01/20 01:42:47;;;;;;;7.95;2.00;;;5.00;95.20;;;;;;6159204;23;20017;-74
2022/01/20 01:45:30;;;;;;;6.30;1.63;;;5.00;95.20;;;;;;6185897;23;20038;-74
2022/01/20 01:47:56;;;;;;;4.85;1.20;;;5.00;95.20;;;;;;6137116;23;20444;-75
2022/01/20 01:50:22;;;;;;;5.97;1.20;;;5.00;95.20;;;;;;6135156;23;20016;-74
2022/01/20 01:52:48;;;;;;;7.82;1.23;;;5.00;95.20;;;;;;6185822;23;20079;-74
2022/01/20 01:55:14;;;;;;;8.00;1.17;;;5.00;95.10;;;;;;6159255;23;20411;-74
2022/01/20 01:57:39;;;;;;;5.10;0.93;;;4.90;95.10;;;;;;6159487;23;20539;-74
2022/01/20 02:00:06;;;;;;;9.32;1.10;;;4.90;95.10;;;;;;6159339;23;20060;-74
2022/01/20 02:02:31;;;;;;;7.85;1.05;;;4.90;95.10;;;;;;6159448;23;20021;-75
2022/01/20 02:04:57;;;;;;;2.90;1.00;;;4.90;95.10;;;;;;6134707;23;20028;-73
2022/01/20 02:18:36;;;;;;;6.47;0.90;;;4.90;95.10;;;;;;6185659;23;20396;-75
2022/01/20 02:20:59;;;;;;;6.68;1.50;;;4.90;95.10;;;;;;6166786;23;20403;-75
2022/01/20 02:23:26;;;;;;;4.97;1.17;;;4.90;95.10;;;;;;6159502;23;20104;-74
2022/01/20 02:25:52;;;;;;;9.05;1.95;;;4.90;95.10;;;;;;6159970;23;20013;-74
2022/01/20 02:28:18;;;;;;;6.90;1.40;;;4.90;95.10;;;;;;6158982;23;20100;-74
2022/01/20 02:30:43;;;;;;;6.78;1.52;;;4.90;95.10;;;;;;6185150;23;20017;-74
2022/01/20 02:33:16;;;;;;;5.93;1.40;;;4.90;95.10;;;;;;6158988;23;20025;-74
2022/01/20 02:35:45;;;;;;;5.68;1.20;;;4.90;95.10;;;;;;6160073;23;20024;-75
2022/01/20 02:38:17;;;;;;;9.20;1.40;;;4.90;95.10;;;;;;6134153;23;20107;-74
2022/01/20 02:45:53;;;;;;;11.23;1.73;;;4.90;95.20;;;;;;6162910;23;20348;-74
2022/01/20 02:48:19;;;;;;;5.47;1.08;;;4.90;95.20;;;;;;6158878;23;20021;-75
2022/01/20 02:50:45;;;;;;;8.55;1.45;;;4.90;95.20;;;;;;6159199;23;20009;-75
2022/01/20 02:53:10;;;;;;;9.25;1.35;;;5.00;95.20;;;;;;6183803;23;20052;-75
2022/01/20 02:55:36;;;;;;;6.90;1.70;;;4.90;95.20;;;;;;6159256;23;20021;-75
2022/01/20 02:58:02;;;;;;;6.13;1.48;;;4.90;95.20;;;;;;6134312;23;20111;-74
2022/01/20 03:00:28;;;;;;;7.55;1.70;;;5.00;95.20;;;;;;6159158;23;20506;-75
2022/01/20 03:02:55;;;;;;;8.32;1.60;;;4.90;95.20;;;;;;6134810;23;20039;-74
2022/01/20 03:05:21;;;;;;;7.75;1.70;;;4.90;95.20;;;;;;6158905;23;20088;-74
2022/01/20 03:07:47;;;;;;;6.40;1.88;;;4.90;95.20;;;;;;6134660;23;20021;-74
2022/01/20 03:10:13;;;;;;;6.55;1.40;;;4.90;95.20;;;;;;6158846;23;20017;-76
2022/01/20 03:12:38;;;;;;;7.30;1.58;;;4.90;95.20;;;;;;6158878;23;20043;-75
2022/01/20 03:15:05;;;;;;;8.57;1.90;;;4.90;95.20;;;;;;6158816;23;20321;-75
2022/01/20 03:17:32;;;;;;;7.95;1.38;;;4.90;95.10;;;;;;6134647;23;20028;-74
2022/01/20 03:19:58;;;;;;;9.65;1.63;;;4.80;95.10;;;;;;6183766;23;20350;-74
2022/01/20 03:22:24;;;;;;;11.20;2.90;;;4.80;95.10;;;;;;6158751;23;20340;-74
2022/01/20 03:24:50;;;;;;;10.95;2.22;;;4.90;95.10;;;;;;6185248;23;20039;-75
2022/01/20 03:27:15;;;;;;;10.07;1.63;;;4.80;95.10;;;;;;6133744;23;20519;-74
2022/01/20 03:29:41;;;;;;;8.55;2.00;;;4.80;95.10;;;;;;6184939;23;20017;-75
2022/01/20 03:32:07;;;;;;;7.75;2.35;;;4.80;95.10;;;;;;6158713;23;20017;-75
2022/01/20 03:34:33;;;;;;;8.48;2.35;;;4.80;95.10;;;;;;6185406;23;20013;-75
2022/01/20 03:37:00;;;;;;;13.40;1.90;;;4.80;95.10;;;;;;6158513;23;20394;-74
2022/01/20 03:39:25;;;;;;;8.32;2.00;;;4.80;95.10;;;;;;6158628;23;20021;-75
2022/01/20 03:41:51;;;;;;;8.30;2.75;;;4.80;95.10;;;;;;6109518;23;20352;-74
2022/01/20 03:44:17;;;;;;;14.25;2.30;;;4.80;95.10;;;;;;6183446;23;20017;-74
2022/01/20 03:46:42;;;;;;;11.88;2.17;;;4.90;95.10;;;;;;6158639;23;20391;-74
2022/01/20 03:49:12;;;;;;;12.48;2.63;;;4.90;95.10;;;;;;6158343;23;20025;-75
2022/01/20 03:51:38;;;;;;;10.75;2.17;;;4.80;95.00;;;;;;6160077;23;20119;-74
2022/01/20 03:54:05;;;;;;;13.20;2.97;;;4.80;95.00;;;;;;6185097;23;20017;-75
2022/01/20 03:56:30;;;;;;;16.17;3.60;;;4.80;95.00;;;;;;6183415;23;20371;-74
2022/01/20 03:58:56;;;;;;;15.43;3.22;;;4.80;95.00;;;;;;6185054;23;20082;-74
2022/01/20 04:01:22;;;;;;;17.80;3.30;;;4.80;95.00;;;;;;6158638;23;20088;-74
2022/01/20 04:03:48;;;;;;;13.98;3.17;;;4.80;94.90;;;;;;6185053;23;20119;-74
2022/01/20 04:06:13;;;;;;;15.90;3.50;;;4.80;94.90;;;;;;6133997;23;20028;-75
2022/01/20 04:08:41;;;;;;;16.63;3.00;;;4.70;94.90;;;;;;6133800;23;20024;-78
2022/01/20 04:11:18;;;;;;;16.13;3.35;;;4.70;94.80;;;;;;6158192;23;20415;-74
2022/01/20 04:13:43;;;;;;;18.27;4.28;;;4.70;94.80;;;;;;6158897;23;20088;-73
2022/01/20 04:16:17;;;;;;;13.98;3.47;;;4.70;94.80;;;;;;6185777;23;20489;-81
2022/01/20 04:18:56;;;;;;;13.32;4.13;;;4.70;94.70;;;;;;6161318;23;20048;-74
2022/01/20 04:21:27;;;;;;;16.88;3.72;;;4.70;94.70;;;;;;6162504;23;20043;-74
2022/01/20 04:23:52;;;;;;;17.58;3.95;;;4.70;94.70;;;;;;6160438;23;20053;-74
2022/01/20 04:26:18;;;;;;;13.07;3.60;;;4.70;94.70;;;;;;6186574;23;20028;-74
2022/01/20 04:28:45;;;;;;;18.00;3.45;;;4.60;94.60;;;;;;6160386;23;20021;-74
2022/01/20 04:31:11;;;;;;;13.55;3.88;;;4.60;94.60;;;;;;6160247;23;20076;-84
2022/01/20 04:33:37;;;;;;;14.82;4.18;;;4.60;94.60;;;;;;6160311;23;20021;-76
2022/01/20 04:36:03;;;;;;;17.52;4.22;;;4.60;94.50;;;;;;6160718;23;20017;-75
2022/01/20 04:38:29;;;;;;;16.67;3.63;;;4.50;94.40;;;;;;6160303;23;20060;-74
2022/01/20 04:40:57;;;;;;;21.85;4.18;;;4.60;94.40;;;;;;6186647;23;20048;-74
2022/01/20 04:43:24;;;;;;;20.48;3.70;;;4.50;94.40;;;;;;6160602;23;20097;-75
2022/01/20 04:46:18;;;;;;;13.80;3.83;;;4.50;94.30;;;;;;6186073;23;20025;-75
2022/01/20 04:59:19;;;;;;;11.73;2.97;;;4.50;94.10;;;;;;6138972;23;20025;-74
2022/01/20 05:01:46;;;;;;;17.63;3.83;;;4.50;94.10;;;;;;6160257;23;20321;-74
2022/01/20 05:04:12;;;;;;;13.10;2.92;;;4.50;94.00;;;;;;6186350;23;20021;-74
2022/01/20 05:06:40;;;;;;;16.58;4.10;;;4.40;94.00;;;;;;6135034;23;20339;-73
2022/01/20 05:09:07;;;;;;;14.00;2.92;;;4.40;93.90;;;;;;6184403;23;20017;-77
2022/01/20 05:11:36;;;;;;;14.10;3.45;;;4.40;93.90;;;;;;6135113;23;20096;-73
2022/01/20 05:14:01;;;;;;;14.18;3.63;;;4.40;93.90;;;;;;6184756;23;20072;-73
2022/01/20 05:16:27;;;;;;;15.43;3.30;;;4.40;93.80;;;;;;6159528;23;20335;-73
2022/01/20 05:18:53;;;;;;;14.77;3.05;;;4.30;93.80;;;;;;6160025;23;20531;-73
2022/01/20 05:21:18;;;;;;;14.52;3.38;;;4.40;93.70;;;;;;6185914;23;20053;-75
2022/01/20 05:23:44;;;;;;;13.65;3.25;;;4.40;93.60;;;;;;6186172;23;20313;-73
2022/01/20 05:26:13;;;;;;;11.10;2.78;;;4.30;93.40;;;;;;6135020;23;20025;-73
2022/01/20 05:28:39;;;;;;;11.18;2.50;;;4.30;93.40;;;;;;6159561;23;20542;-73
2022/01/20 05:31:04;;;;;;;13.25;2.75;;;4.30;93.40;;;;;;6159932;23;20056;-73
2022/01/20 05:33:30;;;;;;;13.63;2.53;;;4.30;93.30;;;;;;6185931;23;20017;-72
2022/01/20 05:35:56;;;;;;;11.07;2.28;;;4.30;93.30;;;;;;6159733;23;20017;-73
2022/01/20 05:38:21;;;;;;;9.73;2.45;;;4.30;93.30;;;;;;6159717;23;20335;-73
2022/01/20 05:40:47;;;;;;;13.20;2.45;;;4.30;93.30;;;;;;6185707;23;20013;-72
2022/01/20 05:43:12;;;;;;;13.30;2.80;;;4.20;93.10;;;;;;6159974;23;20028;-72
2022/01/20 05:45:38;;;;;;;12.63;2.65;;;4.20;93.20;;;;;;6159264;23;20025;-74
2022/01/20 05:48:14;;;;;;;11.65;2.67;;;4.20;93.10;;;;;;6186015;23;20060;-75
2022/01/20 05:50:40;;;;;;;9.95;2.65;;;4.20;93.20;;;;;;6185767;23;20344;-75
2022/01/20 05:53:06;;;;;;;11.63;2.28;;;4.20;93.20;;;;;;6185962;23;20021;-75
2022/01/20 05:55:32;;;;;;;10.50;2.75;;;4.10;93.10;;;;;;6159496;23;20027;-75
2022/01/20 05:57:57;;;;;;;11.85;3.10;;;4.10;93.00;;;;;;6159899;23;20052;-73
2022/01/20 06:00:24;;;;;;;10.93;2.47;;;4.10;93.10;;;;;;6159389;23;20017;-78
2022/01/20 06:05:35;;;;;;;11.00;2.78;;;4.00;93.00;;;;;;6163630;23;20053;-75
2022/01/20 06:08:01;;;;;;;13.82;2.70;;;4.00;93.00;;;;;;6185896;23;20020;-75
2022/01/20 06:10:26;;;;;;;15.13;2.10;;;4.00;93.00;;;;;;6159362;23;20092;-75
2022/01/20 06:12:52;;;;;;;10.40;2.80;;;4.00;93.00;;;;;;6159463;23;20108;-73
2022/01/20 06:15:17;;;;;;;8.88;2.00;;;4.00;93.00;;;;;;6185725;23;20309;-72
2022/01/20 06:17:43;;;;;;;9.05;1.73;;;4.00;93.00;;;;;;6183682;23;20063;-73
2022/01/20 06:20:09;;;;;;;9.05;2.17;;;4.00;93.00;;;;;;6158876;23;20083;-72
2022/01/20 06:22:35;;;;;;;10.63;2.17;;;4.00;93.00;;;;;;6158896;23;20392;-72
2022/01/20 06:25:02;;;;;;;9.30;1.98;;;4.00;93.00;;;;;;6185239;23;20331;-74
2022/01/20 06:27:28;;;;;;;14.90;2.88;;;4.00;93.00;;;;;;6158342;23;20071;-77
2022/01/20 06:29:54;;;;;;;12.20;2.00;;;4.00;93.00;;;;;;6159415;23;20434;-73
2022/01/20 06:32:20;;;;;;;10.65;2.00;;;3.90;92.90;;;;;;6183775;23;20056;-73
2022/01/20 06:34:46;;;;;;;14.18;2.70;;;3.90;92.90;;;;;;6134451;23;20432;-73
2022/01/20 06:37:12;;;;;;;9.20;2.90;;;3.90;92.90;;;;;;6159208;23;20458;-72
2022/01/20 06:39:38;;;;;;;12.27;2.42;;;3.90;92.90;;;;;;6134040;23;20379;-72
2022/01/20 06:42:04;;;;;;;10.30;2.05;;;3.90;92.90;;;;;;6183795;23;20021;-72
2022/01/20 06:44:29;;;;;;;13.25;2.83;;;3.90;92.90;;;;;;6184616;23;20096;-74
2022/01/20 06:46:55;;;;;;;13.25;2.95;;;3.90;92.90;;;;;;6184852;23;20326;-76
2022/01/20 06:49:21;;;;;;;10.77;2.55;;;3.80;92.90;;;;;;6157560;23;20024;-74
2022/01/20 06:51:47;;;;;;;14.80;2.92;;;3.80;92.90;;;;;;6157644;23;20025;-74
2022/01/20 06:54:14;;;;;;;12.85;2.90;;;3.80;92.90;;;;;;6158635;23;20020;-73
2022/01/20 06:56:43;;;;;;;9.85;3.05;;;3.80;93.00;;;;;;6158427;23;20028;-73
2022/01/20 06:59:16;;;;;;;10.90;2.60;;;3.80;93.00;;;;;;6159295;23;20017;-73
2022/01/20 07:01:42;;;;;;;10.85;2.60;;;3.70;93.00;;;;;;6159307;23;20017;-73
2022/01/20 07:04:10;;;;;;;8.38;2.47;;;3.80;93.10;;;;;;6184827;23;20031;-73
2022/01/20 07:06:38;;;;;;;12.48;2.78;;;3.80;93.10;;;;;;6159171;23;20145;-73
2022/01/20 07:09:04;;;;;;;8.13;2.45;;;3.80;93.20;;;;;;6184959;23;20020;-73
2022/01/20 07:11:33;;;;;;;9.55;2.40;;;3.70;93.20;;;;;;6158387;23;20013;-73
2022/01/20 07:13:58;;;;;;;10.00;2.47;;;3.80;93.20;;;;;;6158917;23;20150;-73
2022/01/20 07:16:24;;;;;;;11.55;2.65;;;3.70;93.20;;;;;;6158698;23;20041;-73
2022/01/20 07:18:53;;;;;;;11.05;2.13;;;3.70;93.20;;;;;;6158497;23;20510;-73
2022/01/20 07:21:18;;;;;;;14.40;2.35;;;3.70;93.20;;;;;;6158629;23;20019;-74
2022/01/20 07:23:44;;;;;;;10.43;2.22;;;3.80;93.30;;;;;;6158045;23;20013;-74
2022/01/20 07:26:10;;;;;;;9.93;2.40;;;3.70;93.20;;;;;;6158381;23;20017;-75
2022/01/20 07:28:39;;;;;;;9.70;2.38;;;3.70;93.30;;;;;;6182575;23;20085;-77
2022/01/20 07:31:05;;;;;;;10.73;2.40;;;3.70;93.30;;;;;;6133298;23;20412;-77
2022/01/20 07:33:31;;;;;;;11.68;2.72;;;3.70;93.30;;;;;;6158221;23;20021;-74
2022/01/20 07:35:56;;;;;;;14.02;2.25;;;3.70;93.20;;;;;;6133732;23;20017;-76
2022/01/20 07:38:22;;;;;;;7.57;1.73;;;3.70;93.20;;;;;;6161915;23;20013;-81
2022/01/20 07:40:48;;;;;;;9.82;2.13;;;3.70;93.20;;;;;;6160906;23;20432;-79
2022/01/20 07:43:13;;;;;;;11.60;2.65;;;3.60;93.20;;;;;;6161436;23;20447;-77
2022/01/20 07:45:39;;;;;;;12.70;2.35;;;3.60;93.20;;;;;;6134612;23;20021;-79
2022/01/20 07:48:05;;;;;;;9.45;2.35;;;3.60;93.20;;;;;;6138525;23;20021;-80
2022/01/20 07:50:31;;;;;;;12.75;2.33;;;3.60;93.20;;;;;;6187924;23;20092;-79
2022/01/20 07:52:56;;;;;;;10.35;2.38;;;3.60;93.20;;;;;;6137502;23;20044;-82
2022/01/20 07:55:25;;;;;;;11.98;2.72;;;3.60;93.30;;;;;;6190038;23;20013;-75
2022/01/20 07:57:51;;;;;;;11.02;3.08;;;3.60;93.30;;;;;;6161451;23;20040;-79
2022/01/20 08:00:17;;;;;;;16.02;3.35;;;3.60;93.30;;;;;;6162786;23;20443;-78
2022/01/20 08:02:43;;;;;;;11.98;2.78;;;3.60;93.30;;;;;;6115007;23;20020;-81
2022/01/20 08:05:09;;;;;;;11.48;2.42;;;3.60;93.30;;;;;;6161593;23;20025;-76
2022/01/20 08:07:34;;;;;;;15.73;3.47;;;3.60;93.30;;;;;;6162926;23;20068;-80
2022/01/20 08:10:00;;;;;;;13.70;2.72;;;3.60;93.30;;;;;;6190237;23;20096;-76
2022/01/20 08:12:28;;;;;;;9.98;2.65;;;3.70;93.40;;;;;;6111580;23;20021;-76
2022/01/20 08:14:54;;;;;;;14.30;2.30;;;3.70;93.40;;;;;;6161717;23;20024;-77
2022/01/20 08:17:20;;;;;;;12.77;3.30;;;3.70;93.30;;;;;;6136812;23;20021;-76
2022/01/20 08:19:46;;;;;;;13.20;2.67;;;3.70;93.30;;;;;;6160913;23;20013;-77
2022/01/20 08:22:12;;;;;;;10.68;2.63;;;3.70;93.30;;;;;;6112479;23;20021;-76
2022/01/20 08:24:37;;;;;;;12.73;3.00;;;3.70;93.20;;;;;;6161492;23;20052;-76
2022/01/20 08:27:03;;;;;;;11.73;2.60;;;3.70;93.20;;;;;;6111768;23;20021;-76
2022/01/20 08:29:29;;;;;;;15.02;3.35;;;3.70;93.20;;;;;;6136604;23;20021;-76
2022/01/20 08:31:54;;;;;;;16.35;2.90;;;3.70;93.20;;;;;;6161029;23;20335;-76
2022/01/20 08:34:20;;;;;;;11.80;2.33;;;3.70;93.20;;;;;;6112053;23;20048;-77
2022/01/20 08:36:46;;;;;;;13.05;3.25;;;3.70;93.10;;;;;;6160983;23;20025;-77
2022/01/20 08:42:00;;;;;;;11.43;2.58;;;3.70;93.10;;;;;;6140006;23;20455;-77
2022/01/20 08:44:25;;;;;;;12.00;2.67;;;3.70;93.10;;;;;;6112869;23;20021;-76
2022/01/20 08:46:54;;;;;;;15.88;2.60;;;3.70;93.10;;;;;;6137006;23;20021;-77
2022/01/20 08:49:20;;;;;;;7.75;2.20;;;3.70;93.10;;;;;;6160801;23;20017;-76
2022/01/20 08:51:46;;;;;;;11.95;2.25;;;3.70;93.00;;;;;;6161037;23;20054;-76
2022/01/20 08:54:13;;;;;;;13.10;3.05;;;3.70;93.00;;;;;;6161332;23;20053;-75
2022/01/20 08:56:39;;;;;;;10.55;2.50;;;3.70;92.90;;;;;;6185977;23;20025;-76
2022/01/20 08:59:06;;;;;;;10.90;2.72;;;3.70;92.90;;;;;;6161097;23;20064;-76
2022/01/20 09:01:33;;;;;;;12.20;2.25;;;3.70;92.80;;;;;;6135652;23;20059;-76
2022/01/20 09:03:58;;;;;;;11.18;2.13;;;3.70;92.70;;;;;;6136038;23;20101;-76
2022/01/20 09:06:24;;;;;;;14.30;3.45;;;3.80;92.80;;;;;;6160988;23;20048;-77
2022/01/20 09:08:50;;;;;;;11.45;3.10;;;3.70;92.70;;;;;;6160530;23;20024;-77
2022/01/20 09:11:38;;;;;;;15.90;3.08;;;3.80;92.70;;;;;;6160734;23;20460;-77
2022/01/20 09:16:51;;;;;;;18.55;3.13;;;3.80;92.70;;;;;;6140013;23;20027;-79
2022/01/20 09:19:17;;;;;;;13.82;2.72;;;3.80;92.70;;;;;;6160454;23;20052;-76
2022/01/20 09:21:44;;;;;;;15.75;3.20;;;3.90;92.60;;;;;;6160342;23;20024;-76
2022/01/20 09:24:10;;;;;;;15.80;4.13;;;3.90;92.60;;;;;;6160286;23;20013;-76
2022/01/20 09:26:35;;;;;;;12.48;2.85;;;4.00;92.60;;;;;;6184928;23;20403;-76
2022/01/20 09:29:01;;;;;;;13.63;2.80;;;4.00;92.60;;;;;;6135435;23;20021;-75
2022/01/20 09:31:27;;;;;;;13.95;2.67;;;4.00;92.60;;;;;;6135308;23;20136;-78
2022/01/20 09:33:54;;;;;;;15.07;2.60;;;4.10;92.60;;;;;;6134404;23;20017;-77
2022/01/20 09:36:20;;;;;;;15.43;3.35;;;4.10;92.60;;;;;;6135683;23;20027;-76
2022/01/20 09:38:46;;;;;;;12.27;3.05;;;4.20;92.60;;;;;;6160478;23;20017;-76
2022/01/20 09:41:11;;;;;;;14.98;3.17;;;4.30;92.60;;;;;;6135194;23;20104;-74
2022/01/20 09:43:37;;;;;;;14.45;3.00;;;4.30;92.60;;;;;;6159687;23;20048;-77
2022/01/20 09:46:03;;;;;;;11.50;2.70;;;4.30;92.60;;;;;;6134777;23;20021;-75
2022/01/20 09:48:29;;;;;;;12.27;3.70;;;4.30;92.60;;;;;;6160389;23;20108;-80
2022/01/20 09:50:55;;;;;;;17.17;3.78;;;4.40;92.50;;;;;;6159791;23;20050;-79
2022/01/20 09:53:21;;;;;;;15.88;3.70;;;4.40;92.40;;;;;;6160575;23;20372;-77
2022/01/20 09:55:47;;;;;;;12.75;3.70;;;4.40;92.40;;;;;;6135653;23;20096;-78
2022/01/20 09:58:13;;;;;;;10.93;3.28;;;4.50;92.40;;;;;;6135498;23;20060;-76
2022/01/20 10:00:40;;;;;;;12.82;3.03;;;4.50;92.40;;;;;;6135194;23;20075;-75
2022/01/20 10:03:09;;;;;;;13.25;2.83;;;4.60;92.30;;;;;;6185753;23;20020;-77
2022/01/20 10:05:44;;;;;;;16.52;3.50;;;4.60;92.30;;;;;;6184917;23;20021;-76
2022/01/20 10:08:10;;;;;;;13.52;3.35;;;4.60;92.10;;;;;;6111310;23;20024;-76
2022/01/20 10:10:49;;;;;;;13.90;2.92;;;4.70;92.00;;;;;;6159292;23;20130;-75
2022/01/20 10:13:27;;;;;;;18.40;3.00;;;4.70;92.20;;;;;;6137846;23;20348;-77
2022/01/20 10:16:10;;;;;;;8.30;2.37;;;4.70;91.90;;;;;;6111531;23;20317;-77
2022/01/20 10:18:47;;;;;;;15.98;3.25;;;4.80;91.90;;;;;;6135267;23;20021;-79
2022/01/20 10:21:13;;;;;;;15.32;3.38;;;4.90;91.90;;;;;;6135554;23;20021;-78
2022/01/20 10:23:47;;;;;;;11.57;2.85;;;4.90;91.80;;;;;;6160867;23;20020;-78
2022/01/20 10:26:15;;;;;;;13.48;3.20;;;4.90;91.70;;;;;;6114344;23;20025;-75
2022/01/20 10:28:57;;;;;;;13.68;3.13;;;4.90;91.60;;;;;;6136192;23;20075;-78
2022/01/20 10:31:42;;;;;;;10.52;2.60;;;4.90;91.70;;;;;;6115863;23;20017;-79
2022/01/20 10:34:31;;;;;;;15.43;3.03;;;5.00;91.90;;;;;;6163900;23;20506;-78
2022/01/20 10:37:24;;;;;;;13.07;2.95;;;5.10;92.10;;;;;;6164568;23;20067;-78
2022/01/20 10:39:49;;;;;;;;;;;5.20;92.10;;;;;;6168461;23;20021;-75
2022/01/20 10:42:16;;;;;;;11.02;2.50;;;5.30;91.60;;;;;;6134309;23;19916;-76
2022/01/20 10:44:46;;;;;;;9.98;2.50;;;5.30;91.80;;;;;;6136228;23;20021;-80
2022/01/20 10:47:13;;;;;;;17.35;2.90;;;5.40;91.50;;;;;;6159877;23;20056;-75
2022/01/20 10:49:39;;;;;;;10.20;2.67;;;5.50;91.50;;;;;;6158443;23;20092;-79
2022/01/20 10:52:06;;;;;;;12.20;2.88;;;5.60;91.40;;;;;;6159565;23;20024;-77
2022/01/20 10:54:41;;;;;;;9.95;2.97;;;5.80;91.20;;;;;;6134637;23;20367;-78
2022/01/20 10:57:08;;;;;;;11.13;2.70;;;5.80;91.00;;;;;;6185313;23;20017;-75
2022/01/20 10:59:34;;;;;;;11.65;2.55;;;5.80;91.00;;;;;;6160021;23;20017;-76
2022/01/20 11:01:59;;;;;;;11.75;3.45;;;5.70;90.90;;;;;;6185573;23;20027;-76
2022/01/20 11:04:26;;;;;;;11.27;2.92;;;5.60;91.00;;;;;;6159092;23;20402;-76
2022/01/20 11:06:55;;;;;;;10.23;2.00;;;5.60;91.00;;;;;;6184183;23;20020;-78
2022/01/20 11:09:24;;;;;;;7.60;1.67;;;5.70;91.00;;;;;;6134677;23;20371;-74
2022/01/20 11:11:51;;;;;;;8.35;2.17;;;5.70;90.80;;;;;;6159723;23;20048;-77
2022/01/20 11:14:17;;;;;;;8.05;1.95;;;5.80;90.70;;;;;;6183948;23;20101;-75
2022/01/20 11:16:43;;;;;;;7.18;1.90;;;5.90;90.60;;;;;;6159188;23;20049;-75
2022/01/20 11:19:19;;;;;;;7.88;1.95;;;5.90;90.50;;;;;;6158942;23;20025;-77
2022/01/20 11:21:45;;;;;;;9.32;2.25;;;6.00;90.30;;;;;;6159275;23;20028;-75
2022/01/20 11:24:22;;;;;;;12.30;2.55;;;6.10;90.30;;;;;;6158521;23;20025;-75
2022/01/20 11:26:50;;;;;;;12.98;2.40;;;6.30;90.10;;;;;;6159207;23;20017;-75
2022/01/20 11:29:16;;;;;;;14.77;2.42;;;6.50;90.00;;;;;;6134822;23;20060;-76
2022/01/20 11:31:42;;;;;;;11.10;2.25;;;6.80;89.40;;;;;;6159527;23;20447;-77
2022/01/20 11:34:18;;;;;;;10.75;2.50;;;6.70;88.30;;;;;;6159324;23;20028;-84
2022/01/20 11:36:43;;;;;;;10.35;2.78;;;6.50;88.30;;;;;;6159730;23;20021;-76
2022/01/20 11:39:09;;;;;;;9.15;1.90;;;6.30;88.20;;;;;;6158677;23;20056;-77
2022/01/20 11:41:48;;;;;;;8.65;2.22;;;6.20;88.70;;;;;;6185280;23;20020;-77
2022/01/20 11:44:16;;;;;;;6.80;1.30;;;6.30;89.00;;;;;;6161719;23;20021;-76
2022/01/20 11:46:45;;;;;;;6.80;1.50;;;6.70;89.20;;;;;;6158715;23;20025;-75
2022/01/20 11:49:12;;;;;;;10.32;1.88;;;7.30;88.00;;;;;;6135116;23;20024;-76
2022/01/20 11:51:47;;;;;;;6.63;1.38;;;7.90;86.80;;;;;;6134814;23;20092;-75
2022/01/20 11:54:15;;;;;;;13.80;1.73;;;8.60;85.10;;;;;;6159219;23;20037;-75
2022/01/20 11:56:42;;;;;;;8.38;2.65;;;9.20;83.80;;;;;;6159910;23;20044;-75
2022/01/20 11:59:09;;;;;;;8.65;1.58;;;9.70;82.40;;;;;;6134504;23;20021;-76
2022/01/20 12:02:02;;;;;;;5.70;1.73;;;10.30;81.40;;;;;;6158523;23;20023;-76
2022/01/20 12:04:35;;;;;;;9.52;2.00;;;10.80;80.30;;;;;;6153189;23;20027;-74
2022/01/20 12:07:01;;;;;;;9.20;2.05;;;11.10;79.70;;;;;;6134184;23;20075;-77
2022/01/20 12:09:33;;;;;;;7.63;1.83;;;11.50;79.20;;;;;;6158442;23;20021;-76
2022/01/20 12:11:59;;;;;;;12.02;2.28;;;11.60;77.80;;;;;;6159213;23;20486;-74
2022/01/20 12:14:35;;;;;;;9.32;2.08;;;11.80;77.50;;;;;;6184511;23;20096;-74
2022/01/20 12:17:08;;;;;;;6.75;1.65;;;11.90;77.00;;;;;;6158674;23;20017;-73
2022/01/20 12:19:34;;;;;;;12.43;2.83;;;12.10;78.80;;;;;;6185054;23;20021;-75
2022/01/20 12:22:01;;;;;;;8.38;2.10;;;12.40;77.70;;;;;;6133897;23;20266;-75
2022/01/20 12:24:27;;;;;;;10.88;2.33;;;12.40;76.80;;;;;;6158663;23;20021;-76
2022/01/20 12:26:53;;;;;;;7.82;2.15;;;12.40;76.50;;;;;;6162187;23;20096;-82
2022/01/20 12:29:18;;;;;;;8.52;2.13;;;12.40;75.70;;;;;;6134043;23;20025;-73
2022/01/20 12:31:51;;;;;;;12.38;2.28;;;12.50;75.10;;;;;;6133916;23;20440;-72
2022/01/20 12:34:19;;;;;;;11.02;2.60;;;12.60;74.30;;;;;;6158631;23;20083;-73
2022/01/20 12:36:55;;;;;;;6.05;2.05;;;12.70;74.80;;;;;;6157333;23;20028;-73
2022/01/20 12:39:26;;;;;;;9.30;2.28;;;12.80;73.70;;;;;;6159593;23;20078;-72
2022/01/20 12:41:56;;;;;;;8.35;2.47;;;13.00;73.60;;;;;;6160219;23;20437;-72
2022/01/20 12:44:24;;;;;;;7.70;2.50;;;13.10;73.20;;;;;;6135302;23;20116;-74
2022/01/20 12:46:50;;;;;;;9.10;2.35;;;13.20;73.20;;;;;;6186093;23;20377;-74
2022/01/20 12:49:17;;;;;;;12.30;2.42;;;13.30;72.60;;;;;;6134370;23;20079;-73
2022/01/20 12:51:51;;;;;;;7.45;2.90;;;13.30;72.10;;;;;;6135848;23;20047;-74
2022/01/20 12:54:39;;;;;;;10.13;3.00;;;13.40;70.80;;;;;;6160262;23;20013;-78
2022/01/20 12:57:09;;;;;;;12.77;3.22;;;13.50;71.30;;;;;;6160355;23;20079;-75
2022/01/20 12:59:40;;;;;;;10.98;3.42;;;13.60;70.80;;;;;;6160048;23;20013;-74
2022/01/20 13:02:24;;;;;;;8.98;2.70;;;13.60;69.80;;;;;;6184779;23;20048;-74
2022/01/20 13:04:58;;;;;;;11.63;3.58;;;13.70;68.00;;;;;;6160969;23;20408;-74
2022/01/20 13:07:24;;;;;;;13.45;2.88;;;13.60;68.30;;;;;;6186233;23;20017;-75
2022/01/20 13:10:03;;;;;;;13.30;2.85;;;13.40;69.00;;;;;;6135043;23;20399;-75
2022/01/20 13:12:35;;;;;;;9.13;3.20;;;13.40;68.80;;;;;;6137700;23;20024;-75
2022/01/20 13:15:01;;;;;;;;;;;13.10;68.40;;;;;;6161144;23;20083;-74
2022/01/20 13:17:30;;;;;;;10.35;3.03;;;12.70;66.70;;;;;;6159278;23;19916;-74
2022/01/20 13:19:56;;;;;;;12.20;3.78;;;12.50;71.00;;;;;;6184738;23;20017;-75
2022/01/20 13:22:29;;;;;;;11.57;3.55;;;12.40;70.10;;;;;;6160123;23;20049;-76
2022/01/20 13:25:03;;;;;;;;;;;12.00;68.70;;;;;;6160010;23;20021;-74
2022/01/20 13:27:28;;;;;;;10.27;2.70;;;11.50;67.30;;;;;;6159747;23;19920;-74
2022/01/20 13:29:54;;;;;;;12.00;2.92;;;11.20;71.20;;;;;;6159966;23;20336;-74
2022/01/20 13:32:20;;;;;;;12.35;2.60;;;11.20;70.40;;;;;;6159719;23;20456;-74
2022/01/20 13:34:53;;;;;;;11.30;2.95;;;11.30;70.20;;;;;;6110529;23;20073;-73
2022/01/20 13:37:19;;;;;;;11.60;2.15;;;11.40;69.20;;;;;;6110904;23;20035;-74
2022/01/20 13:39:45;;;;;;;13.95;3.13;;;11.60;69.30;;;;;;6159766;23;20017;-73
2022/01/20 13:45:13;;;;;;;9.55;2.92;;;12.10;67.60;;;;;;6111275;23;20024;-73
2022/01/20 13:48:08;;;;;;;10.82;2.65;;;12.40;66.80;;;;;;6185491;23;20060;-74
2022/01/20 13:50:40;;;;;;;13.90;2.83;;;12.70;65.80;;;;;;6135074;23;20013;-74
2022/01/20 13:53:17;;;;;;;14.98;2.63;;;12.80;65.90;;;;;;6135670;23;20017;-73
2022/01/20 13:55:47;;;;;;;8.52;2.60;;;13.00;65.20;;;;;;6134653;23;20474;-73
2022/01/20 13:58:32;;;;;;;10.75;2.90;;;13.10;65.10;;;;;;6136064;23;20025;-74
2022/01/20 14:00:59;;;;;;;9.75;2.88;;;13.30;64.00;;;;;;6185561;23;20024;-73
2022/01/20 14:03:25;;;;;;;11.82;2.88;;;13.40;64.10;;;;;;6159035;23;20020;-74
2022/01/20 14:05:55;;;;;;;9.93;2.58;;;13.50;63.60;;;;;;6159258;23;20021;-74
2022/01/20 14:08:22;;;;;;;11.40;3.33;;;13.60;63.10;;;;;;6184043;23;20335;-74
2022/01/20 14:10:48;;;;;;;9.45;2.65;;;13.60;62.90;;;;;;6159093;23;20017;-76
2022/01/20 14:13:14;;;;;;;7.10;2.53;;;13.30;63.50;;;;;;6186498;23;20027;-77
2022/01/20 14:15:40;;;;;;;8.82;2.45;;;13.00;63.90;;;;;;6185911;23;20028;-74